sensor_id;sensor_type;location;lat;lon;timestamp;pressure;altitude;pressure_sealevel;temperature;humidity
70544;BME280;58097;48.364;-1.224;2023-01-27T00:02:23;100757.56;;;5.27;91.68
70544;BME280;58097;48.364;-1.224;2023-01-27T00:04:48;100753.84;;;5.28;91.42
70544;BME280;58097;48.364;-1.224;2023-01-27T00:07:14;100755.72;;;5.27;91.83
70544;BME280;58097;48.364;-1.224;2023-01-27T00:09:39;100761.19;;;5.27;91.87
70544;BME280;58097;48.364;-1.224;2023-01-27T00:12:08;100753.94;;;5.26;91.79
70544;BME280;58097;48.364;-1.224;2023-01-27T00:14:54;100755.72;;;5.27;91.98
70544;BME280;58097;48.364;-1.224;2023-01-27T00:17:19;100760.22;;;5.28;91.66
70544;BME280;58097;48.364;-1.224;2023-01-27T00:19:45;100751.09;;;5.28;91.77
70544;BME280;58097;48.364;-1.224;2023-01-27T00:22:10;100755.81;;;5.26;91.92
70544;BME280;58097;48.364;-1.224;2023-01-27T00:24:54;100748.91;;;5.20;91.61
70544;BME280;58097;48.364;-1.224;2023-01-27T00:27:19;100750.72;;;5.20;91.33
70544;BME280;58097;48.364;-1.224;2023-01-27T00:29:45;100743.50;;;5.19;91.12
70544;BME280;58097;48.364;-1.224;2023-01-27T00:32:10;100751.16;;;5.14;91.17
70544;BME280;58097;48.364;-1.224;2023-01-27T00:34:54;100745.91;;;5.11;90.84
70544;BME280;58097;48.364;-1.224;2023-01-27T00:37:19;100743.28;;;5.09;90.83
70544;BME280;58097;48.364;-1.224;2023-01-27T00:39:45;100744.38;;;5.07;90.70
70544;BME280;58097;48.364;-1.224;2023-01-27T00:42:10;100749.94;;;5.05;90.56
70544;BME280;58097;48.364;-1.224;2023-01-27T00:44:35;100739.22;;;5.02;90.53
70544;BME280;58097;48.364;-1.224;2023-01-27T00:47:01;100749.41;;;5.00;90.40
70544;BME280;58097;48.364;-1.224;2023-01-27T00:49:26;100754.09;;;4.98;90.31
70544;BME280;58097;48.364;-1.224;2023-01-27T00:51:51;100752.25;;;4.98;90.41
70544;BME280;58097;48.364;-1.224;2023-01-27T00:54:19;100755.97;;;4.97;90.57
70544;BME280;58097;48.364;-1.224;2023-01-27T00:56:44;100751.47;;;4.96;90.88
70544;BME280;58097;48.364;-1.224;2023-01-27T00:59:09;100747.66;;;4.99;90.88
70544;BME280;58097;48.364;-1.224;2023-01-27T01:01:35;100754.88;;;5.00;91.30
70544;BME280;58097;48.364;-1.224;2023-01-27T01:04:00;100748.31;;;5.03;91.23
70544;BME280;58097;48.364;-1.224;2023-01-27T01:06:26;100756.31;;;5.06;91.39
70544;BME280;58097;48.364;-1.224;2023-01-27T01:08:52;100760.91;;;5.05;91.73
70544;BME280;58097;48.364;-1.224;2023-01-27T01:11:19;100751.59;;;5.08;91.78
70544;BME280;58097;48.364;-1.224;2023-01-27T01:13:46;100754.13;;;5.11;91.95
70544;BME280;58097;48.364;-1.224;2023-01-27T01:16:15;100748.75;;;5.09;92.16
70544;BME280;58097;48.364;-1.224;2023-01-27T01:18:41;100744.03;;;5.11;92.04
70544;BME280;58097;48.364;-1.224;2023-01-27T01:21:07;100747.88;;;5.09;92.19
70544;BME280;58097;48.364;-1.224;2023-01-27T01:23:38;100745.91;;;5.11;92.21
70544;BME280;58097;48.364;-1.224;2023-01-27T01:26:04;100744.16;;;5.10;92.39
70544;BME280;58097;48.364;-1.224;2023-01-27T01:28:30;100738.78;;;5.08;92.28
70544;BME280;58097;48.364;-1.224;2023-01-27T01:30:55;100742.19;;;5.12;92.12
70544;BME280;58097;48.364;-1.224;2023-01-27T01:33:21;100739.44;;;5.12;92.09
70544;BME280;58097;48.364;-1.224;2023-01-27T01:35:46;100736.38;;;5.16;91.85
70544;BME280;58097;48.364;-1.224;2023-01-27T01:38:12;100738.13;;;5.17;91.72
70544;BME280;58097;48.364;-1.224;2023-01-27T01:40:42;100738.91;;;5.19;91.90
70544;BME280;58097;48.364;-1.224;2023-01-27T01:43:15;100738.91;;;5.19;91.75
70544;BME280;58097;48.364;-1.224;2023-01-27T01:45:46;100736.97;;;5.21;91.56
70544;BME280;58097;48.364;-1.224;2023-01-27T01:48:18;100740.47;;;5.23;91.67
70544;BME280;58097;48.364;-1.224;2023-01-27T01:50:55;100738.50;;;5.25;91.57
70544;BME280;58097;48.364;-1.224;2023-01-27T01:53:24;100747.69;;;5.24;91.74
70544;BME280;58097;48.364;-1.224;2023-01-27T01:55:55;100740.34;;;5.25;91.71
70544;BME280;58097;48.364;-1.224;2023-01-27T01:58:21;100746.59;;;5.27;91.58
70544;BME280;58097;48.364;-1.224;2023-01-27T02:00:47;100740.34;;;5.25;92.05
70544;BME280;58097;48.364;-1.224;2023-01-27T02:03:13;100735.88;;;5.24;91.83
70544;BME280;58097;48.364;-1.224;2023-01-27T02:05:42;100740.69;;;5.20;92.37
70544;BME280;58097;48.364;-1.224;2023-01-27T02:08:15;100732.53;;;5.19;92.04
70544;BME280;58097;48.364;-1.224;2023-01-27T02:10:41;100738.03;;;5.19;92.25
70544;BME280;58097;48.364;-1.224;2023-01-27T02:13:07;100732.47;;;5.20;92.04
70544;BME280;58097;48.364;-1.224;2023-01-27T02:15:33;100725.19;;;5.19;91.91
70544;BME280;58097;48.364;-1.224;2023-01-27T02:17:59;100726.19;;;5.18;92.30
70544;BME280;58097;48.364;-1.224;2023-01-27T02:28:04;100718.28;;;5.14;92.08
70544;BME280;58097;48.364;-1.224;2023-01-27T02:30:30;100721.13;;;5.12;92.02
70544;BME280;58097;48.364;-1.224;2023-01-27T02:32:55;100720.25;;;5.12;91.97
70544;BME280;58097;48.364;-1.224;2023-01-27T02:35:33;100711.06;;;5.13;91.97
70544;BME280;58097;48.364;-1.224;2023-01-27T02:38:01;100720.38;;;5.10;91.80
70544;BME280;58097;48.364;-1.224;2023-01-27T02:40:28;100715.97;;;5.08;91.90
70544;BME280;58097;48.364;-1.224;2023-01-27T02:42:57;100710.50;;;5.08;91.96
70544;BME280;58097;48.364;-1.224;2023-01-27T02:45:23;100704.38;;;5.04;91.98
70544;BME280;58097;48.364;-1.224;2023-01-27T02:47:48;100700.75;;;5.04;92.01
70544;BME280;58097;48.364;-1.224;2023-01-27T02:50:14;100702.41;;;5.06;92.08
70544;BME280;58097;48.364;-1.224;2023-01-27T02:52:39;100710.63;;;5.06;92.35
70544;BME280;58097;48.364;-1.224;2023-01-27T02:55:05;100703.28;;;5.07;92.27
70544;BME280;58097;48.364;-1.224;2023-01-27T02:57:31;100698.78;;;5.06;92.34
70544;BME280;58097;48.364;-1.224;2023-01-27T02:59:56;100702.28;;;5.08;92.37
70544;BME280;58097;48.364;-1.224;2023-01-27T03:02:21;100700.41;;;5.08;92.24
70544;BME280;58097;48.364;-1.224;2023-01-27T03:04:57;100703.16;;;5.08;92.47
70544;BME280;58097;48.364;-1.224;2023-01-27T03:07:22;100703.94;;;5.10;92.11
70544;BME280;58097;48.364;-1.224;2023-01-27T03:09:48;100698.78;;;5.06;92.30
70544;BME280;58097;48.364;-1.224;2023-01-27T03:12:14;100704.16;;;5.07;92.28
70544;BME280;58097;48.364;-1.224;2023-01-27T03:14:48;100705.13;;;5.06;92.21
70544;BME280;58097;48.364;-1.224;2023-01-27T03:17:34;100700.63;;;5.05;91.98
70544;BME280;58097;48.364;-1.224;2023-01-27T03:20:18;100706.13;;;5.05;91.83
70544;BME280;58097;48.364;-1.224;2023-01-27T03:22:44;100699.66;;;5.06;91.69
70544;BME280;58097;48.364;-1.224;2023-01-27T03:25:09;100700.53;;;5.07;91.62
70544;BME280;58097;48.364;-1.224;2023-01-27T03:27:35;100706.88;;;5.07;91.66
70544;BME280;58097;48.364;-1.224;2023-01-27T03:30:01;100698.78;;;5.06;91.40
70544;BME280;58097;48.364;-1.224;2023-01-27T03:32:28;100702.50;;;5.05;91.29
70544;BME280;58097;48.364;-1.224;2023-01-27T03:34:55;100700.75;;;5.04;91.14
70544;BME280;58097;48.364;-1.224;2023-01-27T03:37:29;100702.50;;;5.05;91.44
70544;BME280;58097;48.364;-1.224;2023-01-27T03:40:14;100696.91;;;5.06;91.19
70544;BME280;58097;48.364;-1.224;2023-01-27T03:42:59;100693.28;;;5.06;91.01
70544;BME280;58097;48.364;-1.224;2023-01-27T03:45:46;100699.00;;;5.03;90.70
70544;BME280;58097;48.364;-1.224;2023-01-27T03:48:31;100699.00;;;5.03;90.57
70544;BME280;58097;48.364;-1.224;2023-01-27T03:51:00;100701.19;;;4.97;90.21
70544;BME280;58097;48.364;-1.224;2023-01-27T03:53:26;100699.31;;;4.98;90.38
70544;BME280;58097;48.364;-1.224;2023-01-27T03:55:52;100693.94;;;4.96;90.16
70544;BME280;58097;48.364;-1.224;2023-01-27T04:00:50;100693.47;;;4.90;89.52
70544;BME280;58097;48.364;-1.224;2023-01-27T04:03:16;100698.06;;;4.89;89.76
70544;BME280;58097;48.364;-1.224;2023-01-27T04:06:08;100689.31;;;4.84;89.58
70544;BME280;58097;48.364;-1.224;2023-01-27T04:08:53;100697.84;;;4.80;89.41
70544;BME280;58097;48.364;-1.224;2023-01-27T04:11:18;100701.88;;;4.74;89.42
70544;BME280;58097;48.364;-1.224;2023-01-27T04:14:04;100701.53;;;4.66;89.37
70544;BME280;58097;48.364;-1.224;2023-01-27T04:16:30;100695.56;;;4.59;89.41
70544;BME280;58097;48.364;-1.224;2023-01-27T04:18:57;100694.81;;;4.57;89.29
70544;BME280;58097;48.364;-1.224;2023-01-27T04:21:23;100695.78;;;4.56;89.25
70544;BME280;58097;48.364;-1.224;2023-01-27T04:23:52;100688.88;;;4.51;89.12
70544;BME280;58097;48.364;-1.224;2023-01-27T04:26:18;100694.56;;;4.48;88.95
70544;BME280;58097;48.364;-1.224;2023-01-27T04:28:43;100693.13;;;4.42;88.89
70544;BME280;58097;48.364;-1.224;2023-01-27T04:31:08;100694.31;;;4.38;88.67
70544;BME280;58097;48.364;-1.224;2023-01-27T04:33:34;100692.66;;;4.35;88.88
70544;BME280;58097;48.364;-1.224;2023-01-27T04:35:59;100693.72;;;4.33;88.95
70544;BME280;58097;48.364;-1.224;2023-01-27T04:38:25;100695.00;;;4.27;88.67
70544;BME280;58097;48.364;-1.224;2023-01-27T04:40:50;100697.84;;;4.26;88.79
70544;BME280;58097;48.364;-1.224;2023-01-27T04:43:15;100695.31;;;4.23;88.71
70544;BME280;58097;48.364;-1.224;2023-01-27T04:45:40;100700.22;;;4.18;88.46
70544;BME280;58097;48.364;-1.224;2023-01-27T04:48:06;100697.59;;;4.16;88.69
70544;BME280;58097;48.364;-1.224;2023-01-27T04:50:32;100695.94;;;4.14;88.80
70544;BME280;58097;48.364;-1.224;2023-01-27T04:52:59;100687.06;;;4.10;88.70
70544;BME280;58097;48.364;-1.224;2023-01-27T04:55:25;100690.00;;;4.07;88.71
70544;BME280;58097;48.364;-1.224;2023-01-27T04:57:51;100687.53;;;4.02;88.52
70544;BME280;58097;48.364;-1.224;2023-01-27T05:00:17;100689.59;;;3.99;88.65
70544;BME280;58097;48.364;-1.224;2023-01-27T05:02:42;100687.84;;;3.98;88.61
70544;BME280;58097;48.364;-1.224;2023-01-27T05:05:08;100694.41;;;3.95;88.49
70544;BME280;58097;48.364;-1.224;2023-01-27T05:07:33;100692.75;;;3.93;88.83
70544;BME280;58097;48.364;-1.224;2023-01-27T05:09:59;100684.53;;;3.93;88.90
70544;BME280;58097;48.364;-1.224;2023-01-27T05:12:24;100686.41;;;3.92;89.04
70544;BME280;58097;48.364;-1.224;2023-01-27T05:14:49;100687.28;;;3.93;89.15
70544;BME280;58097;48.364;-1.224;2023-01-27T05:17:15;100685.31;;;3.95;89.26
70544;BME280;58097;48.364;-1.224;2023-01-27T05:19:40;100678.75;;;3.97;89.49
70544;BME280;58097;48.364;-1.224;2023-01-27T05:22:06;100681.41;;;3.99;89.52
70544;BME280;58097;48.364;-1.224;2023-01-27T05:24:31;100685.88;;;4.00;89.36
70544;BME280;58097;48.364;-1.224;2023-01-27T05:26:57;100676.69;;;4.01;89.30
70544;BME280;58097;48.364;-1.224;2023-01-27T05:29:22;100675.81;;;4.00;89.05
70544;BME280;58097;48.364;-1.224;2023-01-27T05:31:48;100678.56;;;4.00;89.08
70544;BME280;58097;48.364;-1.224;2023-01-27T05:34:13;100685.00;;;3.99;88.95
70544;BME280;58097;48.364;-1.224;2023-01-27T05:36:39;100677.59;;;4.01;89.20
70544;BME280;58097;48.364;-1.224;2023-01-27T05:39:05;100686.75;;;4.00;89.13
70544;BME280;58097;48.364;-1.224;2023-01-27T05:41:30;100679.44;;;4.01;89.41
70544;BME280;58097;48.364;-1.224;2023-01-27T05:43:56;100673.97;;;4.01;89.71
70544;BME280;58097;48.364;-1.224;2023-01-27T05:46:26;100665.66;;;4.02;89.52
70544;BME280;58097;48.364;-1.224;2023-01-27T05:48:55;100674.06;;;3.99;89.44
70544;BME280;58097;48.364;-1.224;2023-01-27T05:51:22;100672.31;;;3.98;89.37
70544;BME280;58097;48.364;-1.224;2023-01-27T05:53:49;100679.63;;;3.98;89.11
70544;BME280;58097;48.364;-1.224;2023-01-27T05:56:17;100688.16;;;3.93;88.76
70544;BME280;58097;48.364;-1.224;2023-01-27T05:58:43;100686.50;;;3.91;88.56
70544;BME280;58097;48.364;-1.224;2023-01-27T06:01:11;100683.88;;;3.89;88.57
70544;BME280;58097;48.364;-1.224;2023-01-27T06:03:38;100688.66;;;3.86;88.50
70544;BME280;58097;48.364;-1.224;2023-01-27T06:06:04;100689.75;;;3.83;88.70
70544;BME280;58097;48.364;-1.224;2023-01-27T06:08:29;100688.09;;;3.81;88.78
70544;BME280;58097;48.364;-1.224;2023-01-27T06:10:55;100689.28;;;3.77;88.60
70544;BME280;58097;48.364;-1.224;2023-01-27T06:13:22;100688.38;;;3.76;88.60
70544;BME280;58097;48.364;-1.224;2023-01-27T06:15:47;100684.84;;;3.74;88.63
70544;BME280;58097;48.364;-1.224;2023-01-27T06:18:14;100692.28;;;3.72;88.52
70544;BME280;58097;48.364;-1.224;2023-01-27T06:20:42;100688.88;;;3.68;88.34
70544;BME280;58097;48.364;-1.224;2023-01-27T06:23:09;100688.09;;;3.66;88.23
70544;BME280;58097;48.364;-1.224;2023-01-27T06:25:40;100689.25;;;3.62;88.27
70544;BME280;58097;48.364;-1.224;2023-01-27T06:28:06;100697.47;;;3.62;88.37
70544;BME280;58097;48.364;-1.224;2023-01-27T06:30:33;100691.22;;;3.60;88.29
70544;BME280;58097;48.364;-1.224;2023-01-27T06:32:58;100690.34;;;3.60;88.43
70544;BME280;58097;48.364;-1.224;2023-01-27T06:35:24;100677.56;;;3.60;88.56
70544;BME280;58097;48.364;-1.224;2023-01-27T06:37:49;100684.78;;;3.61;88.70
70544;BME280;58097;48.364;-1.224;2023-01-27T06:40:16;100673.94;;;3.60;88.81
70544;BME280;58097;48.364;-1.224;2023-01-27T06:42:42;100668.56;;;3.58;88.79
70544;BME280;58097;48.364;-1.224;2023-01-27T06:45:11;100672.38;;;3.56;88.65
70544;BME280;58097;48.364;-1.224;2023-01-27T06:47:38;100670.53;;;3.56;88.74
70544;BME280;58097;48.364;-1.224;2023-01-27T06:50:05;100674.25;;;3.55;88.67
70544;BME280;58097;48.364;-1.224;2023-01-27T06:52:30;100665.25;;;3.53;88.42
70544;BME280;58097;48.364;-1.224;2023-01-27T06:54:56;100667.03;;;3.54;88.47
70544;BME280;58097;48.364;-1.224;2023-01-27T06:57:21;100673.56;;;3.52;88.43
70544;BME280;58097;48.364;-1.224;2023-01-27T06:59:47;100679.91;;;3.52;88.36
70544;BME280;58097;48.364;-1.224;2023-01-27T07:02:12;100678.34;;;3.48;88.10
70544;BME280;58097;48.364;-1.224;2023-01-27T07:04:38;100673.03;;;3.45;87.93
70544;BME280;58097;48.364;-1.224;2023-01-27T07:07:03;100675.88;;;3.43;88.08
70544;BME280;58097;48.364;-1.224;2023-01-27T07:09:28;100677.72;;;3.43;88.12
70544;BME280;58097;48.364;-1.224;2023-01-27T07:11:54;100680.56;;;3.41;88.12
70544;BME280;58097;48.364;-1.224;2023-01-27T07:14:19;100672.47;;;3.40;88.08
70544;BME280;58097;48.364;-1.224;2023-01-27T07:16:45;100677.06;;;3.39;88.19
70544;BME280;58097;48.364;-1.224;2023-01-27T07:19:10;100676.28;;;3.37;88.00
70544;BME280;58097;48.364;-1.224;2023-01-27T07:21:37;100676.19;;;3.39;88.15
70544;BME280;58097;48.364;-1.224;2023-01-27T07:24:02;100677.44;;;3.33;88.19
70544;BME280;58097;48.364;-1.224;2023-01-27T07:26:27;100675.69;;;3.32;88.20
70544;BME280;58097;48.364;-1.224;2023-01-27T07:28:54;100680.28;;;3.32;88.27
70544;BME280;58097;48.364;-1.224;2023-01-27T07:31:19;100683.00;;;3.32;88.21
70544;BME280;58097;48.364;-1.224;2023-01-27T07:33:45;100680.38;;;3.30;88.20
70544;BME280;58097;48.364;-1.224;2023-01-27T07:36:10;100687.78;;;3.28;88.30
70544;BME280;58097;48.364;-1.224;2023-01-27T07:38:36;100687.69;;;3.30;88.25
70544;BME280;58097;48.364;-1.224;2023-01-27T07:41:04;100688.56;;;3.30;88.34
70544;BME280;58097;48.364;-1.224;2023-01-27T07:43:30;100679.59;;;3.28;88.00
70544;BME280;58097;48.364;-1.224;2023-01-27T07:45:55;100678.81;;;3.26;88.54
70544;BME280;58097;48.364;-1.224;2023-01-27T07:48:21;100685.16;;;3.27;88.43
70544;BME280;58097;48.364;-1.224;2023-01-27T07:50:47;100684.19;;;3.28;88.41
70544;BME280;58097;48.364;-1.224;2023-01-27T07:53:12;100688.88;;;3.26;88.42
70544;BME280;58097;48.364;-1.224;2023-01-27T07:55:38;100683.41;;;3.26;88.50
70544;BME280;58097;48.364;-1.224;2023-01-27T07:58:04;100684.38;;;3.25;88.36
70544;BME280;58097;48.364;-1.224;2023-01-27T08:00:29;100687.13;;;3.25;88.57
70544;BME280;58097;48.364;-1.224;2023-01-27T08:02:56;100690.72;;;3.25;88.47
70544;BME280;58097;48.364;-1.224;2023-01-27T08:05:22;100697.06;;;3.26;88.63
70544;BME280;58097;48.364;-1.224;2023-01-27T08:07:49;100696.78;;;3.30;88.46
70544;BME280;58097;48.364;-1.224;2023-01-27T08:10:15;100692.09;;;3.32;88.37
70544;BME280;58097;48.364;-1.224;2023-01-27T08:12:42;100702.13;;;3.32;88.51
70544;BME280;58097;48.364;-1.224;2023-01-27T08:15:08;100704.78;;;3.33;88.45
70544;BME280;58097;48.364;-1.224;2023-01-27T08:17:33;100696.66;;;3.32;88.62
70544;BME280;58097;48.364;-1.224;2023-01-27T08:19:59;100694.53;;;3.37;88.63
70544;BME280;58097;48.364;-1.224;2023-01-27T08:22:24;100699.09;;;3.36;88.69
70544;BME280;58097;48.364;-1.224;2023-01-27T08:24:50;100698.81;;;3.41;88.67
70544;BME280;58097;48.364;-1.224;2023-01-27T08:27:16;100698.72;;;3.42;88.73
70544;BME280;58097;48.364;-1.224;2023-01-27T08:29:42;100695.00;;;3.43;88.73
70544;BME280;58097;48.364;-1.224;2023-01-27T08:32:08;100698.72;;;3.42;88.67
70544;BME280;58097;48.364;-1.224;2023-01-27T08:34:34;100688.56;;;3.45;88.22
70544;BME280;58097;48.364;-1.224;2023-01-27T08:37:00;100693.25;;;3.42;88.30
70544;BME280;58097;48.364;-1.224;2023-01-27T08:39:25;100695.31;;;3.39;88.34
70544;BME280;58097;48.364;-1.224;2023-01-27T08:41:51;100691.69;;;3.38;88.25
70544;BME280;58097;48.364;-1.224;2023-01-27T08:44:16;100701.94;;;3.35;88.54
70544;BME280;58097;48.364;-1.224;2023-01-27T08:46:41;100705.34;;;3.38;88.83
70544;BME280;58097;48.364;-1.224;2023-01-27T08:49:07;100704.38;;;3.39;88.97
70544;BME280;58097;48.364;-1.224;2023-01-27T08:51:33;100696.97;;;3.41;88.91
70544;BME280;58097;48.364;-1.224;2023-01-27T08:53:58;100700.28;;;3.47;89.14
70544;BME280;58097;48.364;-1.224;2023-01-27T08:56:24;100698.25;;;3.50;89.68
70544;BME280;58097;48.364;-1.224;2023-01-27T08:58:50;100686.72;;;3.59;89.83
70544;BME280;58097;48.364;-1.224;2023-01-27T09:01:18;100688.09;;;3.66;89.66
70544;BME280;58097;48.364;-1.224;2023-01-27T09:03:43;100681.22;;;3.73;89.47
70544;BME280;58097;48.364;-1.224;2023-01-27T09:06:10;100686.44;;;3.78;89.27
70544;BME280;58097;48.364;-1.224;2023-01-27T09:08:36;100682.31;;;3.85;89.46
70544;BME280;58097;48.364;-1.224;2023-01-27T09:11:14;100693.06;;;3.88;89.21
70544;BME280;58097;48.364;-1.224;2023-01-27T09:13:39;100683.00;;;3.89;88.93
70544;BME280;58097;48.364;-1.224;2023-01-27T09:16:05;100686.41;;;3.92;89.07
70544;BME280;58097;48.364;-1.224;2023-01-27T09:18:31;100687.06;;;3.96;88.83
70544;BME280;58097;48.364;-1.224;2023-01-27T09:20:57;100694.69;;;4.05;88.91
70544;BME280;58097;48.364;-1.224;2023-01-27T09:23:22;100686.75;;;4.15;88.64
70544;BME280;58097;48.364;-1.224;2023-01-27T09:25:48;100688.56;;;4.28;88.80
70544;BME280;58097;48.364;-1.224;2023-01-27T09:28:14;100683.16;;;4.41;88.49
70544;BME280;58097;48.364;-1.224;2023-01-27T09:30:43;100684.84;;;4.56;88.38
70544;BME280;58097;48.364;-1.224;2023-01-27T09:33:10;100687.53;;;4.71;87.82
70544;BME280;58097;48.364;-1.224;2023-01-27T09:35:39;100672.66;;;4.87;88.52
70544;BME280;58097;48.364;-1.224;2023-01-27T09:38:08;100681.03;;;4.98;87.19
70544;BME280;58097;48.364;-1.224;2023-01-27T09:46:40;100680.94;;;5.38;87.01
70544;BME280;58097;48.364;-1.224;2023-01-27T09:49:20;100672.25;;;5.44;85.87
70544;BME280;58097;48.364;-1.224;2023-01-27T09:54:38;100681.13;;;5.48;85.56
70544;BME280;58097;48.364;-1.224;2023-01-27T09:57:43;100683.59;;;5.52;85.92
70544;BME280;58097;48.364;-1.224;2023-01-27T10:00:25;100691.81;;;5.52;85.46
70544;BME280;58097;48.364;-1.224;2023-01-27T10:20:22;100692.22;;;5.21;86.90
70544;BME280;58097;48.364;-1.224;2023-01-27T10:23:21;100695.94;;;5.20;87.15
70544;BME280;58097;48.364;-1.224;2023-01-27T10:25:28;100690.25;;;5.23;87.17
70544;BME280;58097;48.364;-1.224;2023-01-27T10:27:58;100693.78;;;5.25;87.62
70544;BME280;58097;48.364;-1.224;2023-01-27T10:30:34;100699.91;;;5.28;87.69
70544;BME280;58097;48.364;-1.224;2023-01-27T10:33:16;100704.28;;;5.31;87.70
70544;BME280;58097;48.364;-1.224;2023-01-27T10:35:57;100705.28;;;5.30;87.79
70544;BME280;58097;48.364;-1.224;2023-01-27T10:41:21;100700.91;;;5.27;88.16
70544;BME280;58097;48.364;-1.224;2023-01-27T10:47:10;100706.81;;;5.47;88.36
70544;BME280;58097;48.364;-1.224;2023-01-27T10:49:44;100713.28;;;5.58;88.72
70544;BME280;58097;48.364;-1.224;2023-01-27T10:52:18;100703.75;;;5.64;88.50
70544;BME280;58097;48.364;-1.224;2023-01-27T10:54:56;100695.06;;;5.70;88.23
70544;BME280;58097;48.364;-1.224;2023-01-27T10:57:36;100699.34;;;5.87;88.99
70544;BME280;58097;48.364;-1.224;2023-01-27T11:00:13;100689.81;;;5.93;88.31
70544;BME280;58097;48.364;-1.224;2023-01-27T11:02:54;100691.63;;;6.05;88.46
70544;BME280;58097;48.364;-1.224;2023-01-27T11:05:26;100683.63;;;6.14;88.47
70544;BME280;58097;48.364;-1.224;2023-01-27T11:07:59;100694.59;;;6.14;87.54
70544;BME280;58097;48.364;-1.224;2023-01-27T11:10:34;100699.66;;;6.08;87.24
70544;BME280;58097;48.364;-1.224;2023-01-27T11:13:02;100695.38;;;6.04;87.31
70544;BME280;58097;48.364;-1.224;2023-01-27T11:15:31;100692.63;;;6.04;87.92
70544;BME280;58097;48.364;-1.224;2023-01-27T11:18:21;100688.00;;;6.04;87.75
70544;BME280;58097;48.364;-1.224;2023-01-27T11:20:52;100690.00;;;6.02;88.00
70544;BME280;58097;48.364;-1.224;2023-01-27T11:23:27;100686.50;;;6.00;87.95
70544;BME280;58097;48.364;-1.224;2023-01-27T11:26:08;100684.97;;;5.96;87.54
70544;BME280;58097;48.364;-1.224;2023-01-27T11:31:41;100682.34;;;5.95;87.40
70544;BME280;58097;48.364;-1.224;2023-01-27T11:36:55;100686.94;;;5.94;87.56
70544;BME280;58097;48.364;-1.224;2023-01-27T11:39:20;100687.06;;;5.93;87.68
70544;BME280;58097;48.364;-1.224;2023-01-27T11:41:51;100681.81;;;5.89;87.35
70544;BME280;58097;48.364;-1.224;2023-01-27T11:44:19;100678.94;;;5.91;87.78
70544;BME280;58097;48.364;-1.224;2023-01-27T11:46:47;100676.22;;;5.91;87.63
70544;BME280;58097;48.364;-1.224;2023-01-27T11:49:36;100672.34;;;5.94;87.97
70544;BME280;58097;48.364;-1.224;2023-01-27T11:52:14;100670.50;;;5.94;87.65
70544;BME280;58097;48.364;-1.224;2023-01-27T11:55:04;100676.50;;;5.99;88.09
70544;BME280;58097;48.364;-1.224;2023-01-27T11:57:30;100667.94;;;6.04;88.23
70544;BME280;58097;48.364;-1.224;2023-01-27T12:00:18;100661.44;;;6.05;88.08
70544;BME280;58097;48.364;-1.224;2023-01-27T12:02:47;100659.25;;;6.10;88.21
70544;BME280;58097;48.364;-1.224;2023-01-27T12:05:26;100665.16;;;6.16;88.56
70544;BME280;58097;48.364;-1.224;2023-01-27T12:07:59;100658.44;;;6.20;88.25
70544;BME280;58097;48.364;-1.224;2023-01-27T12:10:36;100654.88;;;6.31;88.02
70544;BME280;58097;48.364;-1.224;2023-01-27T12:13:17;100660.84;;;6.49;87.69
70544;BME280;58097;48.364;-1.224;2023-01-27T12:15:55;100665.59;;;6.71;87.95
70544;BME280;58097;48.364;-1.224;2023-01-27T12:18:23;100652.78;;;6.94;87.50
70544;BME280;58097;48.364;-1.224;2023-01-27T12:20:57;100650.97;;;7.05;86.71
70544;BME280;58097;48.364;-1.224;2023-01-27T12:23:27;100659.47;;;7.02;85.64
70544;BME280;58097;48.364;-1.224;2023-01-27T12:25:57;100651.16;;;6.91;84.80
70544;BME280;58097;48.364;-1.224;2023-01-27T12:28:36;100642.63;;;6.72;83.79
70544;BME280;58097;48.364;-1.224;2023-01-27T12:31:11;100636.31;;;6.59;84.24
70544;BME280;58097;48.364;-1.224;2023-01-27T12:33:39;100639.75;;;6.49;84.71
70544;BME280;58097;48.364;-1.224;2023-01-27T12:36:18;100628.25;;;6.44;84.97
70544;BME280;58097;48.364;-1.224;2023-01-27T12:38:51;100615.94;;;6.50;85.68
70544;BME280;58097;48.364;-1.224;2023-01-27T12:41:23;100617.25;;;6.68;86.22
70544;BME280;58097;48.364;-1.224;2023-01-27T12:43:51;100614.84;;;6.99;86.04
70544;BME280;58097;48.364;-1.224;2023-01-27T12:46:26;100598.38;;;7.21;84.73
70544;BME280;58097;48.364;-1.224;2023-01-27T12:49:00;100590.03;;;7.45;83.86
70544;BME280;58097;48.364;-1.224;2023-01-27T12:51:40;100585.78;;;7.63;84.31
70544;BME280;58097;48.364;-1.224;2023-01-27T12:54:23;100582.91;;;7.65;83.74
70544;BME280;58097;48.364;-1.224;2023-01-27T12:56:51;100597.56;;;7.54;83.68
70544;BME280;58097;48.364;-1.224;2023-01-27T12:59:18;100600.03;;;7.35;83.19
70544;BME280;58097;48.364;-1.224;2023-01-27T13:02:18;100601.25;;;7.20;84.00
70544;BME280;58097;48.364;-1.224;2023-01-27T13:04:56;100596.25;;;7.02;83.98
70544;BME280;58097;48.364;-1.224;2023-01-27T13:07:27;100585.88;;;6.95;84.52
70544;BME280;58097;48.364;-1.224;2023-01-27T13:12:30;100598.06;;;6.79;84.88
70544;BME280;58097;48.364;-1.224;2023-01-27T13:15:04;100593.94;;;6.74;84.72
70544;BME280;58097;48.364;-1.224;2023-01-27T13:17:40;100584.41;;;6.67;85.00
70544;BME280;58097;48.364;-1.224;2023-01-27T13:20:18;100576.50;;;6.62;85.23
70544;BME280;58097;48.364;-1.224;2023-01-27T13:22:58;100577.50;;;6.61;85.41
70544;BME280;58097;48.364;-1.224;2023-01-27T13:25:36;100576.75;;;6.59;85.71
70544;BME280;58097;48.364;-1.224;2023-01-27T13:28:04;100566.41;;;6.63;85.71
70544;BME280;58097;48.364;-1.224;2023-01-27T13:30:39;100569.31;;;6.72;86.06
70544;BME280;58097;48.364;-1.224;2023-01-27T13:35:53;100565.75;;;6.94;85.96
70544;BME280;58097;48.364;-1.224;2023-01-27T13:39:10;100562.25;;;7.14;86.38
70544;BME280;58097;48.364;-1.224;2023-01-27T13:41:14;100568.41;;;7.29;85.76
70544;BME280;58097;48.364;-1.224;2023-01-27T13:43:54;100571.28;;;7.28;85.22
70544;BME280;58097;48.364;-1.224;2023-01-27T13:46:26;100574.63;;;7.20;84.75
70544;BME280;58097;48.364;-1.224;2023-01-27T13:49:04;100577.00;;;7.13;85.00
70544;BME280;58097;48.364;-1.224;2023-01-27T13:51:37;100572.25;;;7.04;85.04
70544;BME280;58097;48.364;-1.224;2023-01-27T13:54:03;100561.50;;;7.01;85.40
70544;BME280;58097;48.364;-1.224;2023-01-27T13:56:37;100569.75;;;7.01;85.88